sensor_id;sensor_type;location;lat;lon;timestamp;P1;durP1;ratioP1;P2;durP2;ratioP2
64598;SDS011;51008;51.504;11.548;2023-06-26T00:04:02;8.90;;;6.47;;
64598;SDS011;51008;51.504;11.548;2023-06-26T00:09:03;10.85;;;6.50;;
64598;SDS011;51008;51.504;11.548;2023-06-26T00:14:04;10.90;;;6.97;;
64598;SDS011;51008;51.504;11.548;2023-06-26T00:19:04;14.57;;;6.90;;
64598;SDS011;51008;51.504;11.548;2023-06-26T00:24:05;15.57;;;7.50;;
64598;SDS011;51008;51.504;11.548;2023-06-26T00:29:07;12.70;;;7.47;;
64598;SDS011;51008;51.504;11.548;2023-06-26T00:34:08;12.15;;;6.90;;
64598;SDS011;51008;51.504;11.548;2023-06-26T00:39:09;11.75;;;7.03;;
64598;SDS011;51008;51.504;11.548;2023-06-26T00:44:11;11.85;;;6.32;;
64598;SDS011;51008;51.504;11.548;2023-06-26T00:49:12;8.18;;;5.93;;
64598;SDS011;51008;51.504;11.548;2023-06-26T00:54:14;13.70;;;6.70;;
64598;SDS011;51008;51.504;11.548;2023-06-26T00:59:15;8.35;;;5.78;;
64598;SDS011;51008;51.504;11.548;2023-06-26T01:04:16;14.02;;;6.40;;
64598;SDS011;51008;51.504;11.548;2023-06-26T01:09:20;10.57;;;6.10;;
64598;SDS011;51008;51.504;11.548;2023-06-26T01:14:24;10.77;;;6.60;;
64598;SDS011;51008;51.504;11.548;2023-06-26T01:19:26;12.00;;;6.53;;
64598;SDS011;51008;51.504;11.548;2023-06-26T01:24:33;13.45;;;7.15;;
64598;SDS011;51008;51.504;11.548;2023-06-26T01:29:37;9.88;;;7.00;;
64598;SDS011;51008;51.504;11.548;2023-06-26T01:34:42;9.90;;;6.47;;
64598;SDS011;51008;51.504;11.548;2023-06-26T01:39:47;15.38;;;7.25;;
64598;SDS011;51008;51.504;11.548;2023-06-26T01:44:48;11.77;;;6.65;;
64598;SDS011;51008;51.504;11.548;2023-06-26T01:50:24;11.27;;;6.38;;
64598;SDS011;51008;51.504;11.548;2023-06-26T02:00:33;11.23;;;5.90;;
64598;SDS011;51008;51.504;11.548;2023-06-26T02:05:35;11.70;;;6.15;;
64598;SDS011;51008;51.504;11.548;2023-06-26T02:10:36;14.85;;;7.32;;
64598;SDS011;51008;51.504;11.548;2023-06-26T02:15:37;14.57;;;6.70;;
64598;SDS011;51008;51.504;11.548;2023-06-26T02:20:38;10.88;;;6.75;;
64598;SDS011;51008;51.504;11.548;2023-06-26T02:25:39;16.48;;;7.05;;
64598;SDS011;51008;51.504;11.548;2023-06-26T02:30:40;10.50;;;6.97;;
64598;SDS011;51008;51.504;11.548;2023-06-26T02:35:41;13.07;;;6.75;;
64598;SDS011;51008;51.504;11.548;2023-06-26T02:40:44;12.48;;;7.15;;
64598;SDS011;51008;51.504;11.548;2023-06-26T02:45:47;11.63;;;6.47;;
64598;SDS011;51008;51.504;11.548;2023-06-26T02:50:48;12.05;;;6.80;;
64598;SDS011;51008;51.504;11.548;2023-06-26T02:55:49;10.98;;;6.82;;
64598;SDS011;51008;51.504;11.548;2023-06-26T03:00:52;16.00;;;6.45;;
64598;SDS011;51008;51.504;11.548;2023-06-26T03:05:53;11.25;;;6.38;;
64598;SDS011;51008;51.504;11.548;2023-06-26T03:10:54;9.57;;;6.60;;
64598;SDS011;51008;51.504;11.548;2023-06-26T03:15:55;15.82;;;7.10;;
64598;SDS011;51008;51.504;11.548;2023-06-26T03:20:56;12.82;;;7.30;;
64598;SDS011;51008;51.504;11.548;2023-06-26T03:25:58;16.90;;;6.72;;
64598;SDS011;51008;51.504;11.548;2023-06-26T03:31:04;11.60;;;6.88;;
64598;SDS011;51008;51.504;11.548;2023-06-26T03:36:06;14.95;;;7.28;;
64598;SDS011;51008;51.504;11.548;2023-06-26T03:41:07;14.85;;;7.45;;
64598;SDS011;51008;51.504;11.548;2023-06-26T03:46:08;12.15;;;7.68;;
64598;SDS011;51008;51.504;11.548;2023-06-26T03:51:09;13.15;;;6.05;;
64598;SDS011;51008;51.504;11.548;2023-06-26T03:56:13;24.02;;;6.47;;
64598;SDS011;51008;51.504;11.548;2023-06-26T04:01:14;21.60;;;6.40;;
64598;SDS011;51008;51.504;11.548;2023-06-26T04:06:15;18.48;;;6.22;;
64598;SDS011;51008;51.504;11.548;2023-06-26T04:11:16;12.23;;;6.57;;
64598;SDS011;51008;51.504;11.548;2023-06-26T04:16:17;18.38;;;6.75;;
64598;SDS011;51008;51.504;11.548;2023-06-26T04:21:20;10.75;;;6.18;;
64598;SDS011;51008;51.504;11.548;2023-06-26T04:26:21;16.63;;;7.00;;
64598;SDS011;51008;51.504;11.548;2023-06-26T04:31:22;24.30;;;6.82;;
64598;SDS011;51008;51.504;11.548;2023-06-26T04:36:23;16.63;;;6.95;;
64598;SDS011;51008;51.504;11.548;2023-06-26T04:41:24;17.33;;;6.80;;
64598;SDS011;51008;51.504;11.548;2023-06-26T04:46:26;20.08;;;8.80;;
64598;SDS011;51008;51.504;11.548;2023-06-26T04:51:27;16.88;;;8.23;;
64598;SDS011;51008;51.504;11.548;2023-06-26T04:56:28;11.13;;;6.90;;
64598;SDS011;51008;51.504;11.548;2023-06-26T05:01:29;14.55;;;7.95;;
64598;SDS011;51008;51.504;11.548;2023-06-26T05:06:31;16.73;;;8.45;;
64598;SDS011;51008;51.504;11.548;2023-06-26T05:11:32;18.55;;;8.98;;
64598;SDS011;51008;51.504;11.548;2023-06-26T05:16:33;14.82;;;8.30;;
64598;SDS011;51008;51.504;11.548;2023-06-26T05:21:34;16.20;;;8.65;;
64598;SDS011;51008;51.504;11.548;2023-06-26T05:26:36;14.27;;;8.27;;
64598;SDS011;51008;51.504;11.548;2023-06-26T05:31:40;19.20;;;9.00;;
64598;SDS011;51008;51.504;11.548;2023-06-26T05:36:42;19.67;;;8.32;;
64598;SDS011;51008;51.504;11.548;2023-06-26T05:41:43;13.43;;;8.05;;
64598;SDS011;51008;51.504;11.548;2023-06-26T05:46:45;14.55;;;7.72;;
64598;SDS011;51008;51.504;11.548;2023-06-26T05:51:46;15.40;;;8.15;;
64598;SDS011;51008;51.504;11.548;2023-06-26T05:56:48;10.05;;;6.45;;
64598;SDS011;51008;51.504;11.548;2023-06-26T06:01:49;11.10;;;6.38;;
64598;SDS011;51008;51.504;11.548;2023-06-26T06:06:51;9.48;;;6.43;;
64598;SDS011;51008;51.504;11.548;2023-06-26T06:11:52;8.57;;;5.90;;
64598;SDS011;51008;51.504;11.548;2023-06-26T06:16:53;11.40;;;6.20;;
64598;SDS011;51008;51.504;11.548;2023-06-26T06:21:54;9.18;;;6.00;;
64598;SDS011;51008;51.504;11.548;2023-06-26T06:26:55;9.20;;;6.45;;
64598;SDS011;51008;51.504;11.548;2023-06-26T06:31:57;9.00;;;6.15;;
64598;SDS011;51008;51.504;11.548;2023-06-26T06:36:58;8.98;;;6.10;;
64598;SDS011;51008;51.504;11.548;2023-06-26T06:41:59;11.00;;;6.80;;
64598;SDS011;51008;51.504;11.548;2023-06-26T06:47:00;9.18;;;6.38;;
64598;SDS011;51008;51.504;11.548;2023-06-26T06:52:01;10.57;;;6.95;;
64598;SDS011;51008;51.504;11.548;2023-06-26T06:57:02;9.50;;;6.85;;
64598;SDS011;51008;51.504;11.548;2023-06-26T07:02:03;10.73;;;7.15;;
64598;SDS011;51008;51.504;11.548;2023-06-26T07:07:04;11.10;;;7.10;;
64598;SDS011;51008;51.504;11.548;2023-06-26T07:12:06;10.00;;;6.95;;
64598;SDS011;51008;51.504;11.548;2023-06-26T07:17:07;11.38;;;7.43;;
64598;SDS011;51008;51.504;11.548;2023-06-26T07:22:08;12.07;;;7.55;;
64598;SDS011;51008;51.504;11.548;2023-06-26T07:27:09;12.23;;;7.40;;
64598;SDS011;51008;51.504;11.548;2023-06-26T07:32:10;13.27;;;7.57;;
64598;SDS011;51008;51.504;11.548;2023-06-26T07:37:11;10.93;;;7.15;;
64598;SDS011;51008;51.504;11.548;2023-06-26T07:42:12;11.93;;;7.47;;
64598;SDS011;51008;51.504;11.548;2023-06-26T07:47:14;9.95;;;7.15;;
64598;SDS011;51008;51.504;11.548;2023-06-26T07:52:16;10.32;;;7.53;;
64598;SDS011;51008;51.504;11.548;2023-06-26T07:57:19;11.48;;;7.03;;
64598;SDS011;51008;51.504;11.548;2023-06-26T08:02:20;13.73;;;7.47;;
64598;SDS011;51008;51.504;11.548;2023-06-26T08:07:21;13.55;;;7.28;;
64598;SDS011;51008;51.504;11.548;2023-06-26T08:12:22;9.65;;;7.10;;
64598;SDS011;51008;51.504;11.548;2023-06-26T08:17:23;12.60;;;7.13;;
64598;SDS011;51008;51.504;11.548;2023-06-26T08:22:24;10.35;;;6.82;;
64598;SDS011;51008;51.504;11.548;2023-06-26T08:27:25;12.67;;;7.07;;
64598;SDS011;51008;51.504;11.548;2023-06-26T08:32:26;12.67;;;7.40;;
64598;SDS011;51008;51.504;11.548;2023-06-26T08:37:27;9.97;;;7.00;;
64598;SDS011;51008;51.504;11.548;2023-06-26T08:42:28;9.10;;;7.30;;
64598;SDS011;51008;51.504;11.548;2023-06-26T08:47:29;10.65;;;7.18;;
64598;SDS011;51008;51.504;11.548;2023-06-26T08:52:58;10.13;;;7.45;;
64598;SDS011;51008;51.504;11.548;2023-06-26T08:58:12;10.40;;;7.20;;
64598;SDS011;51008;51.504;11.548;2023-06-26T09:03:13;11.23;;;7.50;;
64598;SDS011;51008;51.504;11.548;2023-06-26T09:08:14;10.45;;;7.25;;
64598;SDS011;51008;51.504;11.548;2023-06-26T09:13:15;16.83;;;7.22;;
64598;SDS011;51008;51.504;11.548;2023-06-26T09:18:18;11.90;;;8.07;;
64598;SDS011;51008;51.504;11.548;2023-06-26T09:23:19;12.82;;;7.43;;
64598;SDS011;51008;51.504;11.548;2023-06-26T09:28:22;12.73;;;7.57;;
64598;SDS011;51008;51.504;11.548;2023-06-26T09:33:23;14.98;;;7.43;;
64598;SDS011;51008;51.504;11.548;2023-06-26T09:38:24;11.93;;;7.40;;
64598;SDS011;51008;51.504;11.548;2023-06-26T09:43:25;11.90;;;7.38;;
64598;SDS011;51008;51.504;11.548;2023-06-26T09:48:27;12.88;;;7.35;;
64598;SDS011;51008;51.504;11.548;2023-06-26T09:53:28;12.93;;;7.20;;
64598;SDS011;51008;51.504;11.548;2023-06-26T09:58:29;9.45;;;7.40;;
64598;SDS011;51008;51.504;11.548;2023-06-26T10:03:31;9.55;;;7.35;;
64598;SDS011;51008;51.504;11.548;2023-06-26T10:08:32;10.95;;;7.15;;
64598;SDS011;51008;51.504;11.548;2023-06-26T10:13:38;9.48;;;7.10;;
64598;SDS011;51008;51.504;11.548;2023-06-26T10:18:43;10.38;;;7.03;;
64598;SDS011;51008;51.504;11.548;2023-06-26T10:23:45;11.80;;;8.13;;
64598;SDS011;51008;51.504;11.548;2023-06-26T10:28:46;11.32;;;7.38;;
64598;SDS011;51008;51.504;11.548;2023-06-26T10:33:49;10.23;;;7.78;;
64598;SDS011;51008;51.504;11.548;2023-06-26T10:38:52;10.73;;;7.15;;
64598;SDS011;51008;51.504;11.548;2023-06-26T10:48:59;12.65;;;7.57;;
64598;SDS011;51008;51.504;11.548;2023-06-26T10:54:02;11.38;;;6.97;;
64598;SDS011;51008;51.504;11.548;2023-06-26T11:04:16;10.23;;;7.28;;
64598;SDS011;51008;51.504;11.548;2023-06-26T11:09:18;10.02;;;6.70;;
64598;SDS011;51008;51.504;11.548;2023-06-26T11:14:26;11.98;;;7.45;;
64598;SDS011;51008;51.504;11.548;2023-06-26T11:19:27;9.80;;;6.95;;
64598;SDS011;51008;51.504;11.548;2023-06-26T11:24:28;11.50;;;7.40;;
64598;SDS011;51008;51.504;11.548;2023-06-26T11:29:30;11.38;;;7.05;;
64598;SDS011;51008;51.504;11.548;2023-06-26T11:34:32;11.68;;;7.15;;
64598;SDS011;51008;51.504;11.548;2023-06-26T11:39:34;13.85;;;7.47;;
64598;SDS011;51008;51.504;11.548;2023-06-26T11:44:39;11.98;;;7.40;;
64598;SDS011;51008;51.504;11.548;2023-06-26T11:49:42;11.13;;;7.05;;
64598;SDS011;51008;51.504;11.548;2023-06-26T11:54:44;12.07;;;7.45;;
64598;SDS011;51008;51.504;11.548;2023-06-26T11:59:49;10.05;;;7.15;;
64598;SDS011;51008;51.504;11.548;2023-06-26T12:04:51;10.45;;;7.38;;
64598;SDS011;51008;51.504;11.548;2023-06-26T12:09:52;11.32;;;7.60;;
64598;SDS011;51008;51.504;11.548;2023-06-26T12:14:53;12.63;;;6.65;;
64598;SDS011;51008;51.504;11.548;2023-06-26T12:19:54;9.82;;;6.85;;
64598;SDS011;51008;51.504;11.548;2023-06-26T12:24:56;14.15;;;7.63;;
64598;SDS011;51008;51.504;11.548;2023-06-26T12:29:57;11.80;;;6.80;;
64598;SDS011;51008;51.504;11.548;2023-06-26T12:34:58;9.65;;;7.30;;
64598;SDS011;51008;51.504;11.548;2023-06-26T12:39:59;10.45;;;7.45;;
64598;SDS011;51008;51.504;11.548;2023-06-26T12:45:09;9.45;;;7.13;;
64598;SDS011;51008;51.504;11.548;2023-06-26T12:50:12;11.40;;;6.95;;
64598;SDS011;51008;51.504;11.548;2023-06-26T12:55:13;12.80;;;7.82;;
64598;SDS011;51008;51.504;11.548;2023-06-26T13:00:19;9.93;;;7.30;;
64598;SDS011;51008;51.504;11.548;2023-06-26T13:05:20;12.52;;;7.57;;
64598;SDS011;51008;51.504;11.548;2023-06-26T13:10:22;12.10;;;7.40;;
64598;SDS011;51008;51.504;11.548;2023-06-26T13:15:23;18.48;;;7.80;;
64598;SDS011;51008;51.504;11.548;2023-06-26T13:20:24;43.05;;;10.30;;
64598;SDS011;51008;51.504;11.548;2023-06-26T13:25:25;19.83;;;10.33;;
64598;SDS011;51008;51.504;11.548;2023-06-26T13:30:26;15.80;;;10.32;;
64598;SDS011;51008;51.504;11.548;2023-06-26T13:35:27;20.60;;;11.55;;
64598;SDS011;51008;51.504;11.548;2023-06-26T13:40:28;22.63;;;10.73;;
64598;SDS011;51008;51.504;11.548;2023-06-26T13:45:29;18.60;;;11.07;;
64598;SDS011;51008;51.504;11.548;2023-06-26T13:50:31;17.88;;;10.15;;
64598;SDS011;51008;51.504;11.548;2023-06-26T13:55:34;17.15;;;10.55;;
64598;SDS011;51008;51.504;11.548;2023-06-26T14:00:35;16.50;;;10.18;;
64598;SDS011;51008;51.504;11.548;2023-06-26T14:05:37;14.77;;;10.57;;
64598;SDS011;51008;51.504;11.548;2023-06-26T14:10:38;19.07;;;10.20;;
64598;SDS011;51008;51.504;11.548;2023-06-26T14:15:42;18.58;;;10.57;;
64598;SDS011;51008;51.504;11.548;2023-06-26T14:20:44;22.70;;;10.07;;
64598;SDS011;51008;51.504;11.548;2023-06-26T14:25:45;15.80;;;9.90;;
64598;SDS011;51008;51.504;11.548;2023-06-26T14:30:46;16.38;;;9.25;;
64598;SDS011;51008;51.504;11.548;2023-06-26T14:35:49;18.52;;;10.20;;
64598;SDS011;51008;51.504;11.548;2023-06-26T14:40:50;12.35;;;9.35;;
64598;SDS011;51008;51.504;11.548;2023-06-26T14:45:51;16.23;;;9.90;;
64598;SDS011;51008;51.504;11.548;2023-06-26T14:50:52;17.27;;;10.02;;
64598;SDS011;51008;51.504;11.548;2023-06-26T14:55:53;17.02;;;10.27;;
64598;SDS011;51008;51.504;11.548;2023-06-26T15:00:54;19.35;;;10.52;;
64598;SDS011;51008;51.504;11.548;2023-06-26T15:05:55;21.23;;;11.27;;
64598;SDS011;51008;51.504;11.548;2023-06-26T15:10:56;20.23;;;10.82;;
64598;SDS011;51008;51.504;11.548;2023-06-26T15:15:58;22.23;;;10.70;;
64598;SDS011;51008;51.504;11.548;2023-06-26T15:20:59;18.42;;;10.93;;
64598;SDS011;51008;51.504;11.548;2023-06-26T15:26:00;22.45;;;10.52;;
64598;SDS011;51008;51.504;11.548;2023-06-26T15:31:01;19.48;;;10.38;;
64598;SDS011;51008;51.504;11.548;2023-06-26T15:36:02;21.92;;;11.00;;
64598;SDS011;51008;51.504;11.548;2023-06-26T15:41:05;20.50;;;10.82;;
64598;SDS011;51008;51.504;11.548;2023-06-26T15:46:06;22.42;;;11.38;;
64598;SDS011;51008;51.504;11.548;2023-06-26T15:51:07;20.02;;;10.85;;
64598;SDS011;51008;51.504;11.548;2023-06-26T15:56:09;17.58;;;10.13;;
64598;SDS011;51008;51.504;11.548;2023-06-26T16:01:11;24.90;;;9.80;;
64598;SDS011;51008;51.504;11.548;2023-06-26T16:06:13;16.98;;;8.10;;
64598;SDS011;51008;51.504;11.548;2023-06-26T16:11:14;13.07;;;6.93;;
64598;SDS011;51008;51.504;11.548;2023-06-26T16:16:15;16.77;;;6.95;;
64598;SDS011;51008;51.504;11.548;2023-06-26T16:21:16;13.00;;;6.90;;
64598;SDS011;51008;51.504;11.548;2023-06-26T16:26:18;14.38;;;6.82;;
64598;SDS011;51008;51.504;11.548;2023-06-26T16:31:19;14.23;;;6.32;;
64598;SDS011;51008;51.504;11.548;2023-06-26T16:36:20;11.77;;;6.80;;
64598;SDS011;51008;51.504;11.548;2023-06-26T16:41:22;12.80;;;6.35;;
64598;SDS011;51008;51.504;11.548;2023-06-26T16:46:23;12.80;;;6.10;;
64598;SDS011;51008;51.504;11.548;2023-06-26T16:51:24;13.82;;;6.32;;
64598;SDS011;51008;51.504;11.548;2023-06-26T16:56:27;18.30;;;5.95;;
64598;SDS011;51008;51.504;11.548;2023-06-26T17:01:28;9.57;;;5.15;;
64598;SDS011;51008;51.504;11.548;2023-06-26T17:06:29;12.90;;;5.88;;
64598;SDS011;51008;51.504;11.548;2023-06-26T17:11:30;11.98;;;6.18;;
64598;SDS011;51008;51.504;11.548;2023-06-26T17:16:31;14.00;;;6.00;;
64598;SDS011;51008;51.504;11.548;2023-06-26T17:21:32;11.20;;;5.75;;
64598;SDS011;51008;51.504;11.548;2023-06-26T17:26:34;11.05;;;5.40;;
64598;SDS011;51008;51.504;11.548;2023-06-26T17:31:35;9.23;;;5.03;;
64598;SDS011;51008;51.504;11.548;2023-06-26T17:36:37;9.33;;;4.90;;
64598;SDS011;51008;51.504;11.548;2023-06-26T17:41:39;13.60;;;6.40;;
64598;SDS011;51008;51.504;11.548;2023-06-26T17:46:40;11.35;;;4.93;;
64598;SDS011;51008;51.504;11.548;2023-06-26T17:51:41;9.90;;;4.68;;
64598;SDS011;51008;51.504;11.548;2023-06-26T17:56:42;11.88;;;4.72;;
64598;SDS011;51008;51.504;11.548;2023-06-26T18:01:44;10.35;;;4.45;;
64598;SDS011;51008;51.504;11.548;2023-06-26T18:06:47;8.40;;;4.25;;
64598;SDS011;51008;51.504;11.548;2023-06-26T18:11:48;12.23;;;5.10;;
64598;SDS011;51008;51.504;11.548;2023-06-26T18:16:50;12.10;;;5.47;;
64598;SDS011;51008;51.504;11.548;2023-06-26T18:21:51;9.30;;;4.40;;
64598;SDS011;51008;51.504;11.548;2023-06-26T18:26:52;9.63;;;3.85;;
64598;SDS011;51008;51.504;11.548;2023-06-26T18:31:53;11.82;;;3.90;;
64598;SDS011;51008;51.504;11.548;2023-06-26T18:36:54;8.30;;;3.97;;
64598;SDS011;51008;51.504;11.548;2023-06-26T18:41:55;10.23;;;3.47;;
64598;SDS011;51008;51.504;11.548;2023-06-26T18:46:56;9.23;;;3.30;;
64598;SDS011;51008;51.504;11.548;2023-06-26T18:51:57;8.13;;;3.65;;
64598;SDS011;51008;51.504;11.548;2023-06-26T18:56:58;7.40;;;3.28;;
64598;SDS011;51008;51.504;11.548;2023-06-26T19:02:00;9.23;;;3.45;;
64598;SDS011;51008;51.504;11.548;2023-06-26T19:07:03;10.35;;;3.45;;
64598;SDS011;51008;51.504;11.548;2023-06-26T19:12:05;7.55;;;3.50;;
64598;SDS011;51008;51.504;11.548;2023-06-26T19:17:06;9.23;;;3.72;;
64598;SDS011;51008;51.504;11.548;2023-06-26T19:22:07;11.23;;;3.42;;
64598;SDS011;51008;51.504;11.548;2023-06-26T19:27:08;7.93;;;3.17;;
64598;SDS011;51008;51.504;11.548;2023-06-26T19:32:09;8.82;;;3.92;;
64598;SDS011;51008;51.504;11.548;2023-06-26T19:37:10;10.30;;;3.63;;
64598;SDS011;51008;51.504;11.548;2023-06-26T19:42:11;11.73;;;3.42;;
64598;SDS011;51008;51.504;11.548;2023-06-26T19:47:12;12.07;;;2.83;;
64598;SDS011;51008;51.504;11.548;2023-06-26T19:52:15;8.27;;;3.40;;
64598;SDS011;51008;51.504;11.548;2023-06-26T19:57:16;10.70;;;3.40;;
64598;SDS011;51008;51.504;11.548;2023-06-26T20:02:17;13.32;;;3.58;;
64598;SDS011;51008;51.504;11.548;2023-06-26T20:07:19;10.27;;;2.80;;
64598;SDS011;51008;51.504;11.548;2023-06-26T20:12:21;12.80;;;3.08;;
64598;SDS011;51008;51.504;11.548;2023-06-26T20:17:22;8.30;;;2.80;;
64598;SDS011;51008;51.504;11.548;2023-06-26T20:22:23;8.77;;;2.90;;
64598;SDS011;51008;51.504;11.548;2023-06-26T20:27:25;6.38;;;2.67;;
64598;SDS011;51008;51.504;11.548;2023-06-26T20:32:26;6.82;;;3.10;;
64598;SDS011;51008;51.504;11.548;2023-06-26T20:37:28;9.57;;;3.05;;
64598;SDS011;51008;51.504;11.548;2023-06-26T20:42:29;7.32;;;2.95;;
64598;SDS011;51008;51.504;11.548;2023-06-26T20:47:30;8.27;;;2.83;;
64598;SDS011;51008;51.504;11.548;2023-06-26T20:52:31;10.85;;;3.28;;
64598;SDS011;51008;51.504;11.548;2023-06-26T20:57:34;8.80;;;3.20;;
64598;SDS011;51008;51.504;11.548;2023-06-26T21:02:35;6.70;;;2.90;;
64598;SDS011;51008;51.504;11.548;2023-06-26T21:07:36;7.63;;;3.35;;
64598;SDS011;51008;51.504;11.548;2023-06-26T21:12:37;5.85;;;2.63;;
64598;SDS011;51008;51.504;11.548;2023-06-26T21:17:39;8.02;;;2.75;;
64598;SDS011;51008;51.504;11.548;2023-06-26T21:22:40;7.43;;;3.05;;
64598;SDS011;51008;51.504;11.548;2023-06-26T21:27:41;11.68;;;2.70;;
64598;SDS011;51008;51.504;11.548;2023-06-26T21:32:42;7.35;;;2.28;;
64598;SDS011;51008;51.504;11.548;2023-06-26T21:37:43;7.97;;;2.67;;
64598;SDS011;51008;51.504;11.548;2023-06-26T21:42:44;7.20;;;2.42;;
64598;SDS011;51008;51.504;11.548;2023-06-26T21:47:45;8.60;;;2.45;;
64598;SDS011;51008;51.504;11.548;2023-06-26T21:52:46;7.13;;;2.33;;
64598;SDS011;51008;51.504;11.548;2023-06-26T21:57:47;9.27;;;2.78;;
64598;SDS011;51008;51.504;11.548;2023-06-26T22:02:48;7.55;;;2.30;;
64598;SDS011;51008;51.504;11.548;2023-06-26T22:07:49;10.05;;;2.20;;
64598;SDS011;51008;51.504;11.548;2023-06-26T22:12:50;6.75;;;2.25;;
64598;SDS011;51008;51.504;11.548;2023-06-26T22:17:56;11.93;;;2.20;;
64598;SDS011;51008;51.504;11.548;2023-06-26T22:22:57;7.13;;;2.20;;
64598;SDS011;51008;51.504;11.548;2023-06-26T22:27:58;5.05;;;2.03;;
64598;SDS011;51008;51.504;11.548;2023-06-26T22:32:59;6.90;;;2.20;;
64598;SDS011;51008;51.504;11.548;2023-06-26T22:38:00;7.97;;;2.60;;
64598;SDS011;51008;51.504;11.548;2023-06-26T22:43:01;4.80;;;1.90;;
64598;SDS011;51008;51.504;11.548;2023-06-26T22:48:02;5.88;;;2.00;;
64598;SDS011;51008;51.504;11.548;2023-06-26T22:53:03;5.78;;;2.10;;
64598;SDS011;51008;51.504;11.548;2023-06-26T22:58:04;10.15;;;2.47;;
64598;SDS011;51008;51.504;11.548;2023-06-26T23:03:24;9.60;;;2.38;;
64598;SDS011;51008;51.504;11.548;2023-06-26T23:08:44;6.53;;;1.92;;
64598;SDS011;51008;51.504;11.548;2023-06-26T23:14:04;7.90;;;2.00;;
64598;SDS011;51008;51.504;11.548;2023-06-26T23:19:24;7.18;;;2.10;;
64598;SDS011;51008;51.504;11.548;2023-06-26T23:24:43;4.88;;;1.90;;
64598;SDS011;51008;51.504;11.548;2023-06-26T23:30:03;8.25;;;2.13;;
64598;SDS011;51008;51.504;11.548;2023-06-26T23:35:23;8.20;;;2.03;;
64598;SDS011;51008;51.504;11.548;2023-06-26T23:40:42;8.18;;;2.40;;
64598;SDS011;51008;51.504;11.548;2023-06-26T23:46:05;7.07;;;2.40;;
64598;SDS011;51008;51.504;11.548;2023-06-26T23:51:07;9.35;;;2.45;;
64598;SDS011;51008;51.504;11.548;2023-06-26T23:56:08;4.68;;;2.08;;
